Time;durP1;ratioP1;P1;durP2;ratioP2;P2;SDS_P1;SDS_P2;PMS_P1;PMS_P2;Temp;Humidity;BMP_temperature;BMP_pressure;BME280_temperature;BME280_humidity;BME280_pressure;Samples;Min_cycle;Max_cycle;Signal;HPM_P1;HPM_P2
2022/09/06 00:00:57;;;;;;;3.50;2.40;;;;;;;5.35;74.46;99756.30;104324;1276;75171;-24
2022/09/06 00:03:26;;;;;;;5.30;2.20;;;;;;;5.14;74.66;99757.14;104576;1275;75112;-25
2022/09/06 00:05:53;;;;;;;4.10;2.20;;;;;;;4.93;74.90;99761.54;104582;1274;61105;-25
2022/09/06 00:08:21;;;;;;;4.80;1.60;;;;;;;4.69;75.63;99762.12;104343;1276;62062;-24
2022/09/06 00:10:56;;;;;;;3.70;1.80;;;;;;;5.03;75.90;99764.17;104702;1271;76124;-24
2022/09/06 00:13:27;;;;;;;4.00;2.10;;;;;;;5.65;74.51;99761.02;104576;1273;77111;-25
2022/09/06 00:15:54;;;;;;;5.00;2.10;;;;;;;5.75;73.64;99758.82;104783;1271;75342;-25
2022/09/06 00:18:21;;;;;;;3.70;2.10;;;;;;;5.62;73.58;99760.16;104735;1272;63475;-25
2022/09/06 00:20:49;;;;;;;4.60;1.90;;;;;;;5.40;73.73;99760.04;104779;1271;61145;-24
2022/09/06 00:23:16;;;;;;;3.10;1.90;;;;;;;5.16;73.82;99756.89;104700;1273;75734;-25
2022/09/06 00:25:43;;;;;;;6.00;2.00;;;;;;;4.91;73.74;99758.17;104630;1273;77384;-25
2022/09/06 00:28:10;;;;;;;5.80;2.00;;;;;;;4.63;74.69;99755.70;104733;1271;75389;-25
2022/09/06 00:30:37;;;;;;;3.90;2.10;;;;;;;4.39;76.29;99755.06;104716;1272;61617;-25
2022/09/06 00:33:04;;;;;;;2.90;1.50;;;;;;;4.25;77.06;99758.24;104959;1271;62824;-25
2022/09/06 00:35:31;;;;;;;4.90;2.20;;;;;;;4.71;77.06;99758.94;104698;1273;76238;-24
2022/09/06 00:37:59;;;;;;;6.00;2.20;;;;;;;5.36;76.17;99758.86;104789;1271;76791;-24
2022/09/06 00:40:28;;;;;;;6.90;2.00;;;;;;;5.50;75.16;99755.21;104684;1274;75558;-25
2022/09/06 00:42:56;;;;;;;4.60;2.50;;;;;;;5.40;75.08;99755.71;104642;1271;63197;-24
2022/09/06 00:45:24;;;;;;;6.10;2.20;;;;;;;5.18;75.47;99761.58;104676;1273;63620;-24
2022/09/06 00:47:51;;;;;;;4.30;2.20;;;;;;;4.92;75.93;99757.28;104684;1274;76600;-24
2022/09/06 00:50:18;;;;;;;4.60;2.20;;;;;;;4.77;75.99;99757.98;104577;1273;76051;-24
2022/09/06 00:52:46;;;;;;;4.90;2.60;;;;;;;4.63;76.53;99760.86;104702;1271;75151;-24
2022/09/06 00:55:13;;;;;;;2.70;1.50;;;;;;;4.51;77.35;99758.28;104605;1271;63016;-24
2022/09/06 00:57:41;;;;;;;4.70;1.90;;;;;;;4.98;77.30;99758.02;104415;1273;61097;-24
2022/09/06 01:00:08;;;;;;;7.20;2.10;;;;;;;5.65;75.68;99754.33;104744;1271;76824;-24
2022/09/06 01:02:36;;;;;;;3.00;1.60;;;;;;;5.83;74.74;99750.48;104624;1271;75970;-24
2022/09/06 01:05:04;;;;;;;3.30;2.00;;;;;;;5.76;74.40;99752.60;104605;1273;74524;-24
2022/09/06 01:07:53;;;;;;;4.50;2.00;;;;;;;5.58;74.62;99752.98;104438;1274;62045;-25
2022/09/06 01:10:26;;;;;;;5.60;2.20;;;;;;;5.34;74.98;99752.38;104779;1271;62003;-24
2022/09/06 01:13:00;;;;;;;4.80;2.30;;;;;;;5.18;75.60;99753.16;104716;1271;76655;-24
2022/09/06 01:15:36;;;;;;;4.40;1.70;;;;;;;5.03;76.00;99748.19;104676;1273;75983;-24
2022/09/06 01:18:09;;;;;;;2.90;1.30;;;;;;;4.94;77.02;99748.95;104561;1273;74115;-24
2022/09/06 01:21:09;;;;;;;3.90;1.70;;;;;;;5.49;77.10;99747.02;104710;1273;63084;-24
2022/09/06 01:23:48;;;;;;;5.00;1.80;;;;;;;6.11;75.63;99750.50;104620;1273;63021;-24
2022/09/06 01:26:37;;;;;;;3.80;1.80;;;;;;;6.10;75.13;99751.43;104613;1272;75544;-25
2022/09/06 01:29:08;;;;;;;6.30;1.90;;;;;;;5.85;75.30;99752.14;104666;1273;77078;-24
2022/09/06 01:31:46;;;;;;;5.50;2.60;;;;;;;5.61;75.49;99753.17;104733;1272;75803;-24
2022/09/06 01:34:25;;;;;;;3.60;2.10;;;;;;;5.37;75.93;99750.69;104549;1274;61852;-24
2022/09/06 01:36:58;;;;;;;7.60;2.60;;;;;;;5.18;76.31;99754.53;104674;1271;61927;-25
2022/09/06 01:39:36;;;;;;;6.10;1.70;;;;;;;5.05;76.96;99755.33;104498;1271;76640;-24
2022/09/06 01:42:20;;;;;;;4.60;2.10;;;;;;;5.55;76.56;99753.77;104680;1271;76728;-24
2022/09/06 01:44:54;;;;;;;4.00;2.10;;;;;;;6.20;74.68;99753.47;104661;1273;75338;-24
2022/09/06 01:47:27;;;;;;;;;;;;;;;6.25;73.67;99749.42;104484;1273;62098;-24
2022/09/06 01:50:14;;;;;;;7.80;2.50;;;;;;;6.10;73.96;99749.89;104927;1273;62943;-24
2022/09/06 01:52:54;;;;;;;8.90;2.70;;;;;;;5.88;74.37;99748.18;104603;1271;75215;-24
2022/09/06 01:55:25;;;;;;;3.80;2.00;;;;;;;5.63;75.17;99750.81;104590;1272;77029;-24
2022/09/06 01:58:18;;;;;;;4.80;2.10;;;;;;;5.44;75.62;99750.71;104646;1272;75355;-24
2022/09/06 02:01:03;;;;;;;3.30;2.20;;;;;;;5.25;76.02;99755.59;104699;1273;61633;-24
2022/09/06 02:04:02;;;;;;;2.10;1.20;;;;;;;5.13;77.23;99759.91;104667;1273;62823;-24
2022/09/06 02:06:32;;;;;;;5.10;2.00;;;;;;;5.92;76.60;99756.08;104642;1273;76613;-24
2022/09/06 02:09:05;;;;;;;5.10;2.30;;;;;;;6.50;74.74;99755.53;104652;1271;76894;-24
2022/09/06 02:11:41;;;;;;;5.20;2.50;;;;;;;6.58;73.85;99758.06;104663;1271;75317;-24
2022/09/06 02:14:15;;;;;;;6.10;2.90;;;;;;;6.38;74.56;99755.81;104391;1273;63367;-24
2022/09/06 02:16:46;;;;;;;4.10;2.10;;;;;;;6.26;74.95;99757.13;104471;1273;62969;-24
2022/09/06 02:19:17;;;;;;;3.90;2.10;;;;;;;6.12;74.87;99757.16;104729;1273;75840;-24
2022/09/06 02:21:44;;;;;;;7.50;1.80;;;;;;;5.95;75.45;99759.54;104644;1272;76913;-24
2022/09/06 02:24:15;;;;;;;3.70;1.80;;;;;;;5.82;76.46;99763.29;104632;1272;75186;-24
2022/09/06 02:26:43;;;;;;;3.70;1.70;;;;;;;6.29;76.63;99764.60;104698;1272;63129;-24
2022/09/06 02:29:10;;;;;;;3.40;1.90;;;;;;;6.89;74.74;99760.21;105119;1271;61881;-24
2022/09/06 02:32:00;;;;;;;6.70;2.30;;;;;;;7.04;73.99;99757.48;104877;1271;76665;-24
2022/09/06 02:34:27;;;;;;;5.30;2.00;;;;;;;6.92;73.84;99757.59;104572;1272;77119;-23
2022/09/06 02:36:55;;;;;;;6.00;2.10;;;;;;;6.71;74.39;99762.02;104566;1272;74182;-23
2022/09/06 02:39:22;;;;;;;4.90;2.20;;;;;;;6.44;75.43;99756.89;104676;1273;61549;-24
2022/09/06 02:41:49;;;;;;;3.90;2.00;;;;;;;6.24;76.10;99760.34;104653;1273;63061;-24
2022/09/06 02:44:16;;;;;;;3.30;1.60;;;;;;;6.12;76.45;99760.45;104634;1271;76519;-23
2022/09/06 02:46:43;;;;;;;3.70;1.90;;;;;;;6.53;76.32;99759.85;104703;1271;76038;-23
2022/09/06 02:49:10;;;;;;;4.90;2.10;;;;;;;7.13;75.14;99763.23;104707;1273;75306;-24
2022/09/06 02:51:38;;;;;;;3.60;1.80;;;;;;;7.25;74.45;99760.97;104704;1273;61840;-24
2022/09/06 02:54:05;;;;;;;4.90;2.30;;;;;;;7.14;74.41;99762.30;104710;1273;62144;-24
2022/09/06 02:56:33;;;;;;;5.40;2.00;;;;;;;6.94;74.66;99758.88;104689;1271;76662;-24
2022/09/06 02:59:00;;;;;;;6.20;2.70;;;;;;;6.71;74.79;99755.27;104713;1271;76944;-24
2022/09/06 03:01:27;;;;;;;5.10;2.20;;;;;;;6.53;75.09;99755.03;104727;1271;75433;-23
2022/09/06 03:03:54;;;;;;;4.40;2.50;;;;;;;6.41;76.09;99754.85;104599;1273;62797;-23
2022/09/06 03:06:22;;;;;;;3.60;1.60;;;;;;;6.29;76.46;99758.55;104744;1273;63073;-24
2022/09/06 03:08:50;;;;;;;6.80;1.90;;;;;;;6.79;76.08;99760.71;104810;1271;76635;-23
2022/09/06 03:11:17;;;;;;;3.70;2.10;;;;;;;7.46;74.04;99753.92;104702;1273;77018;-24
2022/09/06 03:13:44;;;;;;;4.80;2.60;;;;;;;7.49;72.14;99753.40;104701;1273;75388;-24
2022/09/06 03:16:11;;;;;;;5.80;3.00;;;;;;;7.44;72.51;99754.25;105000;1272;63093;-24
2022/09/06 03:18:38;;;;;;;6.70;2.50;;;;;;;7.28;72.97;99759.80;105077;1271;61430;-24
2022/09/06 03:21:05;;;;;;;7.70;2.80;;;;;;;7.12;73.70;99762.23;104764;1273;76579;-24
2022/09/06 03:23:33;;;;;;;5.00;3.10;;;;;;;6.86;74.67;99763.13;104720;1273;75695;-22
2022/09/06 03:26:00;;;;;;;5.10;2.90;;;;;;;6.62;75.77;99763.73;104745;1272;73610;-23
2022/09/06 03:28:27;;;;;;;3.90;2.10;;;;;;;6.54;76.36;99769.33;104695;1273;63565;-24
2022/09/06 03:30:54;;;;;;;4.30;2.00;;;;;;;7.07;75.82;99767.34;104779;1273;61902;-23
2022/09/06 03:33:22;;;;;;;4.70;2.10;;;;;;;7.70;73.77;99769.00;104695;1273;76566;-25
2022/09/06 03:35:52;;;;;;;7.40;2.90;;;;;;;7.82;72.27;99765.89;104635;1273;77336;-24
2022/09/06 03:38:19;;;;;;;6.30;3.10;;;;;;;7.65;72.67;99769.08;104789;1273;74305;-24
2022/09/06 03:40:47;;;;;;;5.50;2.80;;;;;;;7.47;73.86;99770.95;103866;1273;1616596;-24
2022/09/06 03:43:15;;;;;;;6.30;2.60;;;;;;;7.27;74.52;99770.73;104748;1273;63009;-24
2022/09/06 03:45:46;;;;;;;7.30;2.80;;;;;;;7.10;74.67;99775.81;104670;1273;76562;-24
2022/09/06 03:48:14;;;;;;;7.40;3.90;;;;;;;6.88;75.63;99774.76;104629;1273;75972;-23
2022/09/06 03:50:48;;;;;;;5.00;3.00;;;;;;;6.49;76.40;99784.08;104703;1273;75584;-24
2022/09/06 03:53:16;;;;;;;13.90;7.10;;;;;;;6.76;75.96;99784.35;104731;1274;62142;-24
2022/09/06 03:55:44;;;;;;;35.70;18.60;;;;;;;7.15;74.15;99785.52;105002;1273;61027;-23
2022/09/06 03:58:12;;;;;;;149.70;35.30;;;;;;;7.19;73.88;99780.81;104694;1271;76744;-23
2022/09/06 04:00:39;;;;;;;99.00;29.00;;;;;;;7.23;73.99;99777.49;104783;1271;76464;-24
2022/09/06 04:03:06;;;;;;;61.30;20.30;;;;;;;7.37;73.47;99776.40;104795;1272;75425;-24
2022/09/06 04:05:34;;;;;;;38.10;15.10;;;;;;;7.19;73.62;99776.84;104604;1273;63108;-23
2022/09/06 04:08:01;;;;;;;83.70;30.70;;;;;;;7.04;74.20;99773.20;104799;1273;61736;-23
2022/09/06 04:10:29;;;;;;;118.40;42.80;;;;;;;7.00;74.47;99776.16;104990;1271;76574;-24
2022/09/06 04:12:56;;;;;;;61.00;19.30;;;;;;;7.00;74.60;99771.65;104960;1273;76965;-24
2022/09/06 04:15:23;;;;;;;30.00;10.70;;;;;;;7.51;73.50;99768.33;104967;1273;75625;-24
2022/09/06 04:17:50;;;;;;;24.20;8.90;;;;;;;8.09;71.41;99762.58;104960;1273;61738;-23
2022/09/06 04:20:17;;;;;;;14.80;7.10;;;;;;;8.39;70.86;99762.51;104619;1273;61755;-24
2022/09/06 04:22:44;;;;;;;14.50;6.50;;;;;;;8.31;69.99;99762.83;104613;1273;76522;-24
2022/09/06 04:25:12;;;;;;;9.50;5.50;;;;;;;8.08;70.55;99762.41;104736;1272;75910;-24
2022/09/06 04:27:39;;;;;;;36.30;14.10;;;;;;;7.97;71.29;99770.52;104798;1273;75402;-24
2022/09/06 04:30:08;;;;;;;18.90;7.90;;;;;;;7.83;72.41;99770.98;104611;1271;61823;-23
2022/09/06 04:32:35;;;;;;;24.30;9.10;;;;;;;7.72;72.91;99764.18;104690;1272;63034;-23
2022/09/06 04:35:02;;;;;;;28.20;11.80;;;;;;;7.64;71.92;99760.02;104778;1271;75276;-23
2022/09/06 04:37:30;;;;;;;14.30;6.00;;;;;;;7.62;71.90;99760.60;104920;1273;76980;-23
2022/09/06 04:39:58;;;;;;;21.70;8.70;;;;;;;8.16;71.34;99761.44;105058;1272;75422;-23
2022/09/06 04:42:25;;;;;;;21.90;8.10;;;;;;;8.84;70.41;99764.10;104724;1273;62929;-24
2022/09/06 04:44:52;;;;;;;16.40;7.90;;;;;;;9.05;69.46;99764.20;104574;1273;62651;-23
2022/09/06 04:47:19;;;;;;;19.60;8.90;;;;;;;9.01;69.25;99765.44;104590;1273;75475;-24
2022/09/06 04:49:48;;;;;;;18.20;9.50;;;;;;;8.80;69.06;99769.39;104571;1272;76687;-23
2022/09/06 04:52:15;;;;;;;43.80;17.20;;;;;;;8.59;70.14;99769.99;104653;1273;75441;-23
2022/09/06 04:54:42;;;;;;;43.70;19.50;;;;;;;8.53;70.78;99773.45;104640;1271;61940;-24
2022/09/06 04:57:10;;;;;;;66.20;23.70;;;;;;;8.44;70.37;99777.58;104722;1272;63032;-24
2022/09/06 04:59:37;;;;;;;66.10;24.00;;;;;;;8.35;71.30;99780.94;104959;1271;76684;-23
2022/09/06 05:02:04;;;;;;;44.70;17.60;;;;;;;8.23;71.71;99781.77;105015;1273;77027;-24
2022/09/06 05:04:31;;;;;;;36.90;14.80;;;;;;;8.21;72.07;99781.91;105008;1272;73864;-23
2022/09/06 05:07:03;;;;;;;29.20;13.30;;;;;;;8.76;71.02;99784.67;105069;1273;61972;-23
2022/09/06 05:09:31;;;;;;;26.60;12.80;;;;;;;9.03;68.17;99784.90;104676;1274;61786;-24
2022/09/06 05:11:59;;;;;;;26.60;12.50;;;;;;;9.46;67.45;99780.30;104593;1274;76591;-24
2022/09/06 05:14:27;;;;;;;24.10;11.10;;;;;;;9.53;67.25;99780.88;104772;1273;76781;-26
2022/09/06 05:16:54;;;;;;;24.80;12.70;;;;;;;9.44;67.18;99783.16;104679;1272;75415;-25
2022/09/06 05:19:21;;;;;;;21.70;13.10;;;;;;;9.35;68.21;99784.57;104770;1273;62767;-24
2022/09/06 05:21:52;;;;;;;24.90;12.00;;;;;;;9.32;68.29;99789.80;105022;1273;61083;-23
2022/09/06 05:24:19;;;;;;;24.50;13.20;;;;;;;9.28;68.07;99787.67;104653;1274;76503;-25
2022/09/06 05:26:47;;;;;;;28.00;13.50;;;;;;;9.25;67.95;99797.40;105037;1273;76996;-25
2022/09/06 05:29:14;;;;;;;29.50;13.00;;;;;;;9.20;66.58;99797.73;104716;1273;74166;-25
2022/09/06 05:31:41;;;;;;;20.60;12.00;;;;;;;9.12;66.42;99797.70;104697;1273;62821;-25
2022/09/06 05:34:09;;;;;;;26.00;12.50;;;;;;;9.05;66.34;99798.66;104721;1271;63037;-24
2022/09/06 05:36:37;;;;;;;26.10;13.90;;;;;;;8.99;66.81;99796.58;104720;1273;76331;-25
2022/09/06 05:39:04;;;;;;;19.40;8.80;;;;;;;9.04;67.96;99798.54;104738;1271;76977;-25
2022/09/06 05:41:32;;;;;;;21.80;12.20;;;;;;;9.70;68.17;99799.84;104638;1273;75410;-25
2022/09/06 05:43:59;;;;;;;22.30;14.10;;;;;;;10.50;66.15;99795.74;104659;1272;61988;-25
2022/09/06 05:46:27;;;;;;;23.70;11.80;;;;;;;10.79;64.86;99792.57;104651;1273;62839;-24
2022/09/06 05:48:56;;;;;;;25.50;10.80;;;;;;;10.83;65.04;99789.82;104695;1272;76292;-25
2022/09/06 05:51:23;;;;;;;27.00;10.10;;;;;;;10.76;64.70;99789.98;104649;1274;76990;-25
2022/09/06 05:53:51;;;;;;;19.00;10.30;;;;;;;10.62;65.02;99787.84;104658;1273;74783;-25
2022/09/06 05:56:18;;;;;;;17.60;10.00;;;;;;;10.48;64.78;99792.59;104609;1273;61153;-25
2022/09/06 05:58:45;;;;;;;22.30;11.50;;;;;;;10.36;64.93;99795.11;104721;1273;63119;-24
2022/09/06 06:01:17;;;;;;;21.20;11.40;;;;;;;10.35;65.07;99800.96;104704;1273;75491;-25
2022/09/06 06:04:06;;;;;;;23.30;11.90;;;;;;;10.38;64.94;99798.48;104627;1273;76808;-25
2022/09/06 06:06:34;;;;;;;23.00;11.60;;;;;;;10.38;65.04;99800.55;104700;1272;74233;-24
2022/09/06 06:09:01;;;;;;;23.60;11.20;;;;;;;10.38;64.82;99803.30;104717;1273;61993;-25
2022/09/06 06:11:29;;;;;;;25.20;11.60;;;;;;;10.37;65.53;99801.48;104708;1273;61620;-24
2022/09/06 06:13:57;;;;;;;21.20;11.50;;;;;;;10.39;65.30;99801.05;104625;1273;76281;-25
2022/09/06 06:16:25;;;;;;;17.60;10.60;;;;;;;10.48;64.53;99800.05;104729;1273;76774;-24
2022/09/06 06:18:52;;;;;;;23.80;11.90;;;;;;;10.52;65.45;99800.63;104667;1272;75082;-24
2022/09/06 06:21:23;;;;;;;17.70;9.00;;;;;;;10.56;65.65;99803.55;104732;1273;62949;-25
2022/09/06 06:23:55;;;;;;;14.30;9.50;;;;;;;10.61;65.16;99804.22;104632;1271;61998;-25
2022/09/06 06:26:23;;;;;;;16.90;10.40;;;;;;;10.76;65.20;99802.12;104610;1271;76568;-24
2022/09/06 06:28:50;;;;;;;27.00;12.50;;;;;;;10.88;64.34;99800.61;105121;1273;76991;-23
2022/09/06 06:31:19;;;;;;;22.70;12.30;;;;;;;10.90;64.59;99801.19;105045;1272;74099;-24
2022/09/06 06:33:47;;;;;;;14.30;7.80;;;;;;;10.98;64.51;99803.23;104886;1274;63600;-24
2022/09/06 06:36:14;;;;;;;14.40;7.20;;;;;;;11.66;63.92;99805.58;105166;1271;61816;-24
2022/09/06 06:38:43;;;;;;;15.40;8.60;;;;;;;12.51;60.89;99799.44;104957;1272;75354;-24
2022/09/06 06:41:12;;;;;;;19.00;9.40;;;;;;;12.88;59.93;99801.29;104654;1271;76090;-24
2022/09/06 06:43:39;;;;;;;19.30;8.40;;;;;;;12.89;59.43;99804.38;104675;1273;74361;-24
2022/09/06 06:46:08;;;;;;;23.50;8.50;;;;;;;12.85;59.37;99804.34;104731;1271;62056;-24
2022/09/06 06:48:36;;;;;;;16.10;9.20;;;;;;;12.59;59.48;99803.52;104663;1274;62111;-23
2022/09/06 06:51:04;;;;;;;18.00;7.60;;;;;;;12.43;59.87;99808.59;104661;1272;76483;-24
2022/09/06 06:53:31;;;;;;;14.90;7.60;;;;;;;12.63;60.16;99812.46;104638;1271;77470;-24
2022/09/06 06:55:58;;;;;;;17.90;7.60;;;;;;;12.84;58.56;99814.69;105049;1273;74422;-24
2022/09/06 06:58:26;;;;;;;13.90;6.60;;;;;;;12.94;58.74;99813.73;104845;1273;62922;-24
2022/09/06 07:00:53;;;;;;;11.20;6.50;;;;;;;13.14;58.21;99812.11;104768;1272;61704;-24
2022/09/06 07:03:20;;;;;;;18.60;7.80;;;;;;;13.12;57.35;99812.95;104616;1273;76517;-24
2022/09/06 07:05:47;;;;;;;11.20;6.30;;;;;;;13.04;57.93;99814.65;104733;1273;76908;-24
2022/09/06 07:08:36;;;;;;;10.90;6.70;;;;;;;13.31;58.29;99815.02;104653;1274;74381;-24
2022/09/06 07:11:04;;;;;;;12.20;5.80;;;;;;;13.57;56.62;99818.49;104831;1271;61727;-24
2022/09/06 07:13:33;;;;;;;9.60;5.60;;;;;;;13.88;56.56;99820.66;104599;1271;61930;-23
2022/09/06 07:16:06;;;;;;;13.50;6.00;;;;;;;14.09;53.33;99821.39;104676;1273;76647;-24
2022/09/06 07:18:34;;;;;;;9.50;6.10;;;;;;;14.06;53.48;99818.82;104607;1271;76981;-24
2022/09/06 07:21:01;;;;;;;11.50;5.50;;;;;;;13.99;54.38;99822.60;104677;1273;75402;-24
2022/09/06 07:23:48;;;;;;;8.70;4.60;;;;;;;14.15;55.05;99818.06;104631;1274;61318;-24
2022/09/06 07:26:30;;;;;;;7.30;4.70;;;;;;;14.02;54.20;99820.23;104636;1273;62787;-24
2022/09/06 07:28:59;;;;;;;8.70;4.30;;;;;;;14.19;53.55;99815.71;104699;1273;76301;-24
2022/09/06 07:31:27;;;;;;;7.20;3.90;;;;;;;14.08;52.71;99819.20;104638;1271;76963;-24
2022/09/06 07:34:16;;;;;;;5.90;3.60;;;;;;;14.42;52.15;99816.00;104602;1273;74404;-23
2022/09/06 07:36:43;;;;;;;7.60;4.40;;;;;;;14.77;49.79;99814.96;104587;1275;61520;-24
2022/09/06 07:39:10;;;;;;;8.40;3.60;;;;;;;14.95;50.51;99812.39;104609;1274;61716;-25
2022/09/06 07:41:37;;;;;;;7.20;3.30;;;;;;;15.10;50.73;99811.91;104933;1271;75585;-24
2022/09/06 07:44:05;;;;;;;4.90;2.80;;;;;;;15.30;50.61;99814.38;104827;1272;76996;-24
2022/09/06 07:46:32;;;;;;;4.80;2.10;;;;;;;15.32;47.99;99816.84;104609;1273;73320;-24
2022/09/06 07:48:59;;;;;;;5.60;3.00;;;;;;;15.23;44.65;99811.99;104643;1274;63172;-24
2022/09/06 07:51:26;;;;;;;29.30;6.10;;;;;;;15.04;45.43;99813.82;104580;1274;63026;-24
2022/09/06 07:53:56;;;;;;;6.00;2.70;;;;;;;15.31;47.34;99813.21;104707;1273;76635;-24
2022/09/06 07:56:43;;;;;;;4.70;2.50;;;;;;;15.56;44.43;99806.27;104764;1271;76503;-24
2022/09/06 07:59:10;;;;;;;3.30;1.70;;;;;;;15.26;41.56;99806.64;104688;1273;74111;-24
2022/09/06 08:01:38;;;;;;;4.90;2.60;;;;;;;15.21;40.41;99806.23;104837;1272;62769;-24
2022/09/06 08:04:09;;;;;;;2.70;2.20;;;;;;;15.76;41.07;99809.56;105163;1271;62078;-24
2022/09/06 08:06:38;;;;;;;2.60;1.20;;;;;;;16.24;40.00;99806.60;104797;1271;76630;-24
2022/09/06 08:09:25;;;;;;;2.20;1.10;;;;;;;16.57;38.66;99805.98;104795;1271;77065;-24
2022/09/06 08:11:52;;;;;;;3.20;1.40;;;;;;;16.78;38.36;99803.02;104618;1273;74089;-24
2022/09/06 08:14:19;;;;;;;3.60;1.60;;;;;;;16.81;39.12;99808.81;104712;1271;62833;-24
2022/09/06 08:16:47;;;;;;;2.10;1.30;;;;;;;16.93;39.26;99806.95;104575;1274;61797;-24
2022/09/06 08:19:14;;;;;;;3.20;1.60;;;;;;;17.06;38.27;99805.23;104567;1274;76645;-24
2022/09/06 08:21:41;;;;;;;2.80;1.20;;;;;;;16.92;36.57;99804.48;104627;1273;77042;-24
2022/09/06 08:24:09;;;;;;;2.00;1.10;;;;;;;17.10;36.58;99801.16;104587;1274;75405;-24
2022/09/06 08:26:39;;;;;;;1.60;1.20;;;;;;;17.13;36.45;99798.56;104709;1274;61962;-24
2022/09/06 08:29:07;;;;;;;7.00;2.00;;;;;;;17.07;36.26;99797.90;104716;1273;61175;-24
2022/09/06 08:31:36;;;;;;;1.40;1.10;;;;;;;16.57;37.38;99795.79;104663;1276;75578;-24
2022/09/06 08:34:03;;;;;;;1.20;0.70;;;;;;;16.61;35.47;99789.29;104616;1272;77098;-24
2022/09/06 08:36:31;;;;;;;1.10;0.80;;;;;;;16.66;35.01;99787.11;104710;1271;75186;-24
2022/09/06 08:38:59;;;;;;;1.50;0.80;;;;;;;16.55;34.08;99787.14;104738;1272;61130;-24
2022/09/06 08:41:47;;;;;;;2.20;1.10;;;;;;;15.95;34.96;99784.92;104686;1271;62718;-24
2022/09/06 08:44:16;;;;;;;4.70;2.10;;;;;;;16.22;37.67;99780.50;104755;1271;75824;-24
2022/09/06 08:47:13;;;;;;;6.00;1.90;;;;;;;16.15;37.35;99781.17;104639;1273;77029;-24
2022/09/06 08:49:42;;;;;;;4.20;2.10;;;;;;;15.83;38.17;99776.23;104784;1272;74202;-24
2022/09/06 08:52:34;;;;;;;3.80;2.00;;;;;;;16.21;38.77;99774.85;105021;1272;61973;-25
2022/09/06 08:55:16;;;;;;;3.00;1.10;;;;;;;15.72;36.56;99777.33;104711;1272;61963;-24
2022/09/06 08:57:47;;;;;;;0.80;0.50;;;;;;;15.32;34.92;99773.64;104717;1271;76630;-24
2022/09/06 09:00:14;;;;;;;1.30;0.60;;;;;;;15.69;33.44;99777.24;104742;1274;76766;-24
2022/09/06 09:02:42;;;;;;;2.50;1.10;;;;;;;15.07;35.24;99776.81;104643;1274;75484;-24
2022/09/06 09:05:17;;;;;;;2.30;1.20;;;;;;;15.86;35.28;99777.81;104730;1273;62003;-24
2022/09/06 09:07:48;;;;;;;2.70;1.40;;;;;;;15.74;34.53;99774.73;104671;1273;62935;-24
2022/09/06 09:10:44;;;;;;;2.00;1.00;;;;;;;15.30;35.02;99773.80;104615;1272;74999;-24
2022/09/06 09:13:39;;;;;;;1.80;1.30;;;;;;;15.80;35.67;99775.13;104603;1274;77020;-23
2022/09/06 09:16:06;;;;;;;2.90;1.10;;;;;;;14.81;36.28;99770.02;104774;1274;74557;-24
2022/09/06 09:18:37;;;;;;;4.50;1.30;;;;;;;14.67;36.73;99771.73;105063;1272;62060;-25
2022/09/06 09:21:04;;;;;;;1.90;1.00;;;;;;;14.85;35.15;99770.75;104724;1276;63089;-24
2022/09/06 09:23:31;;;;;;;2.10;1.00;;;;;;;15.20;35.33;99771.07;104866;1272;76402;-24
2022/09/06 09:26:03;;;;;;;1.90;1.10;;;;;;;14.70;35.06;99765.91;104650;1272;76930;-23
2022/09/06 09:28:30;;;;;;;1.60;1.20;;;;;;;14.25;35.50;99766.27;104669;1271;75554;-23
2022/09/06 09:30:58;;;;;;;2.20;1.10;;;;;;;14.91;35.53;99764.30;104670;1273;63105;-24
2022/09/06 09:33:33;;;;;;;3.40;1.30;;;;;;;15.55;35.27;99760.69;104766;1274;62056;-25
2022/09/06 09:36:04;;;;;;;1.50;1.10;;;;;;;15.70;35.18;99761.48;104724;1275;76598;-25
2022/09/06 09:38:53;;;;;;;4.40;1.70;;;;;;;15.69;36.48;99760.66;105038;1272;76926;-24
2022/09/06 09:41:31;;;;;;;3.60;1.60;;;;;;;15.54;37.58;99758.31;104889;1272;75132;-25
2022/09/06 09:44:00;;;;;;;3.90;1.70;;;;;;;15.83;36.74;99758.39;104691;1272;63123;-25
2022/09/06 09:46:35;;;;;;;3.50;1.80;;;;;;;16.08;36.74;99757.32;104785;1272;62893;-25
2022/09/06 09:49:21;;;;;;;4.70;1.30;;;;;;;16.19;37.04;99753.27;104657;1272;75835;-26
2022/09/06 09:52:05;;;;;;;5.20;1.60;;;;;;;16.42;37.12;99754.30;104666;1273;75944;-24
2022/09/06 09:54:35;;;;;;;1.90;1.10;;;;;;;15.84;35.26;99757.90;104627;1272;75432;-23
2022/09/06 09:57:10;;;;;;;2.60;1.30;;;;;;;14.89;36.06;99757.96;104618;1274;62957;-24
2022/09/06 09:59:43;;;;;;;3.50;1.70;;;;;;;14.93;37.34;99762.31;104753;1271;62073;-24
2022/09/06 10:02:37;;;;;;;2.70;1.50;;;;;;;14.82;37.41;99759.13;104684;1274;76579;-24
2022/09/06 10:05:11;;;;;;;5.60;1.90;;;;;;;14.52;38.25;99760.15;104826;1272;77013;-25
2022/09/06 10:07:52;;;;;;;4.20;1.90;;;;;;;14.84;37.87;99762.28;105062;1271;74495;-25
2022/09/06 10:10:24;;;;;;;3.40;1.50;;;;;;;15.24;37.45;99760.00;104860;1272;61966;-23
2022/09/06 10:13:25;;;;;;;3.80;1.90;;;;;;;15.64;37.29;99761.42;104700;1274;61110;-24
2022/09/06 10:15:53;;;;;;;3.30;2.20;;;;;;;15.61;38.02;99760.69;104803;1272;75971;-23
2022/09/06 10:18:31;;;;;;;6.60;2.20;;;;;;;16.05;38.39;99758.70;104773;1275;75891;-26
2022/09/06 10:21:06;;;;;;;5.00;3.00;;;;;;;15.52;38.00;99761.79;104732;1271;74773;-24
2022/09/06 10:24:10;;;;;;;5.70;2.90;;;;;;;15.22;39.62;99765.25;104994;1275;61779;-24
2022/09/06 10:27:01;;;;;;;5.50;3.10;;;;;;;15.49;40.09;99767.20;104798;1273;61936;-24
2022/09/06 10:29:57;;;;;;;5.50;3.20;;;;;;;15.67;38.72;99762.77;104524;1274;74217;-23
2022/09/06 10:32:41;;;;;;;5.90;2.80;;;;;;;14.85;39.82;99763.06;104669;1274;77070;-24
2022/09/06 10:35:18;;;;;;;5.10;2.90;;;;;;;15.25;39.81;99760.73;104695;1274;74332;-23
2022/09/06 10:37:48;;;;;;;4.00;2.70;;;;;;;15.20;38.38;99757.16;104820;1271;63225;-25
2022/09/06 10:40:26;;;;;;;4.90;2.40;;;;;;;15.46;37.45;99754.22;104716;1271;63234;-24
2022/09/06 10:42:53;;;;;;;6.50;2.50;;;;;;;15.23;37.86;99749.96;104670;1274;76303;-24
2022/09/06 10:45:39;;;;;;;5.30;2.90;;;;;;;14.52;38.92;99753.13;104826;1271;77037;-24
2022/09/06 10:48:12;;;;;;;5.50;3.00;;;;;;;15.16;38.20;99754.61;104817;1271;75849;-24
2022/09/06 10:50:42;;;;;;;6.30;2.90;;;;;;;15.24;38.12;99750.85;104669;1272;61884;-24
2022/09/06 10:53:32;;;;;;;7.30;3.30;;;;;;;15.36;39.55;99752.95;104831;1271;63130;-23
2022/09/06 10:56:24;;;;;;;7.30;4.30;;;;;;;15.55;40.17;99747.27;105068;1271;74589;-25
2022/09/06 10:59:14;;;;;;;7.50;4.00;;;;;;;15.12;39.95;99743.55;104864;1273;77138;-25
2022/09/06 11:02:23;;;;;;;7.30;4.20;;;;;;;15.86;40.72;99741.95;104775;1274;74164;-23
2022/09/06 11:04:51;;;;;;;7.10;4.70;;;;;;;15.45;39.73;99737.08;104718;1274;61142;-23
2022/09/06 11:07:43;;;;;;;12.00;6.40;;;;;;;15.85;40.06;99734.04;104746;1271;61163;-24
2022/09/06 11:10:31;;;;;;;7.00;4.30;;;;;;;15.30;39.04;99740.41;104633;1272;74408;-24
2022/09/06 11:13:09;;;;;;;6.50;2.70;;;;;;;14.67;39.21;99740.81;104630;1274;75653;-24
2022/09/06 11:15:43;;;;;;;4.40;2.80;;;;;;;14.71;40.30;99739.65;104450;1271;74356;-24
2022/09/06 11:18:38;;;;;;;5.60;2.20;;;;;;;14.59;39.22;99738.95;104943;1273;62550;-24
2022/09/06 11:21:17;;;;;;;5.90;2.90;;;;;;;14.56;39.12;99736.85;104484;1274;62912;-24
2022/09/06 11:23:47;;;;;;;8.40;3.10;;;;;;;14.59;39.55;99737.02;104665;1274;76693;-24
2022/09/06 11:26:37;;;;;;;12.70;3.30;;;;;;;14.95;40.26;99737.98;104623;1274;75994;-25
2022/09/06 11:29:28;;;;;;;16.00;2.80;;;;;;;15.20;40.30;99735.49;104673;1272;75186;-24
2022/09/06 11:32:01;;;;;;;34.80;4.80;;;;;;;15.53;39.20;99732.05;104667;1272;61180;-24
2022/09/06 11:34:55;;;;;;;5.80;2.70;;;;;;;15.33;39.09;99733.51;104750;1271;61877;-24
2022/09/06 11:37:27;;;;;;;3.50;1.90;;;;;;;15.60;37.10;99729.27;104695;1272;76416;-24
2022/09/06 11:40:17;;;;;;;3.80;1.80;;;;;;;15.79;37.76;99726.84;104725;1272;77008;-24
2022/09/06 11:42:54;;;;;;;2.70;1.40;;;;;;;16.02;37.32;99727.17;104996;1271;75172;-24
2022/09/06 11:45:48;;;;;;;3.40;1.30;;;;;;;16.16;36.25;99724.02;104901;1273;61975;-24
2022/09/06 11:48:34;;;;;;;2.10;1.30;;;;;;;16.30;34.95;99723.52;104724;1276;62784;-24